sensor_id;sensor_type;location;lat;lon;timestamp;temperature;humidity
20070;DHT22;10195;50.868;4.382;2023-02-17T00:02:00;12.10;99.90
20070;DHT22;10195;50.868;4.382;2023-02-17T00:04:32;12.10;99.90
20070;DHT22;10195;50.868;4.382;2023-02-17T00:06:58;12.20;99.90
20070;DHT22;10195;50.868;4.382;2023-02-17T00:09:23;12.10;99.90
20070;DHT22;10195;50.868;4.382;2023-02-17T00:11:49;12.20;99.90
20070;DHT22;10195;50.868;4.382;2023-02-17T00:14:16;12.20;99.90
20070;DHT22;10195;50.868;4.382;2023-02-17T00:16:42;12.30;99.90
20070;DHT22;10195;50.868;4.382;2023-02-17T00:19:09;12.20;99.90
20070;DHT22;10195;50.868;4.382;2023-02-17T00:22:08;12.20;99.90
20070;DHT22;10195;50.868;4.382;2023-02-17T00:24:37;12.10;99.90
20070;DHT22;10195;50.868;4.382;2023-02-17T00:27:03;12.10;99.90
20070;DHT22;10195;50.868;4.382;2023-02-17T00:29:30;12.20;99.90
20070;DHT22;10195;50.868;4.382;2023-02-17T00:31:55;12.30;99.90
20070;DHT22;10195;50.868;4.382;2023-02-17T00:34:21;12.30;99.90
20070;DHT22;10195;50.868;4.382;2023-02-17T00:36:47;12.30;99.90
20070;DHT22;10195;50.868;4.382;2023-02-17T00:39:15;12.30;99.90
20070;DHT22;10195;50.868;4.382;2023-02-17T00:41:41;12.30;99.90
20070;DHT22;10195;50.868;4.382;2023-02-17T00:44:15;12.30;99.90
20070;DHT22;10195;50.868;4.382;2023-02-17T00:46:41;12.20;99.90
20070;DHT22;10195;50.868;4.382;2023-02-17T00:49:08;12.20;99.90
20070;DHT22;10195;50.868;4.382;2023-02-17T00:51:34;12.30;99.90
20070;DHT22;10195;50.868;4.382;2023-02-17T00:54:00;12.20;99.90
20070;DHT22;10195;50.868;4.382;2023-02-17T00:56:25;12.20;99.90
20070;DHT22;10195;50.868;4.382;2023-02-17T00:58:51;12.10;99.90
20070;DHT22;10195;50.868;4.382;2023-02-17T01:01:16;12.10;99.90
20070;DHT22;10195;50.868;4.382;2023-02-17T01:03:42;12.20;99.90
20070;DHT22;10195;50.868;4.382;2023-02-17T01:06:11;12.20;99.90
20070;DHT22;10195;50.868;4.382;2023-02-17T01:08:41;12.20;99.90
20070;DHT22;10195;50.868;4.382;2023-02-17T01:11:07;12.30;99.90
20070;DHT22;10195;50.868;4.382;2023-02-17T01:13:32;12.30;99.90
20070;DHT22;10195;50.868;4.382;2023-02-17T01:15:58;12.20;99.90
20070;DHT22;10195;50.868;4.382;2023-02-17T01:18:23;12.10;99.90
20070;DHT22;10195;50.868;4.382;2023-02-17T01:20:50;12.20;99.90
20070;DHT22;10195;50.868;4.382;2023-02-17T01:23:16;12.10;99.90
20070;DHT22;10195;50.868;4.382;2023-02-17T01:25:43;12.00;99.90
20070;DHT22;10195;50.868;4.382;2023-02-17T01:28:14;12.10;99.90
20070;DHT22;10195;50.868;4.382;2023-02-17T01:30:41;12.10;99.90
20070;DHT22;10195;50.868;4.382;2023-02-17T01:33:06;12.10;99.90
20070;DHT22;10195;50.868;4.382;2023-02-17T01:35:33;12.10;99.90
20070;DHT22;10195;50.868;4.382;2023-02-17T01:37:59;12.10;99.90
20070;DHT22;10195;50.868;4.382;2023-02-17T01:40:24;12.20;99.90
20070;DHT22;10195;50.868;4.382;2023-02-17T01:42:50;12.20;99.90
20070;DHT22;10195;50.868;4.382;2023-02-17T01:47:52;12.00;99.90
20070;DHT22;10195;50.868;4.382;2023-02-17T01:50:21;11.90;99.90
20070;DHT22;10195;50.868;4.382;2023-02-17T01:52:48;11.90;99.90
20070;DHT22;10195;50.868;4.382;2023-02-17T01:55:16;11.80;99.90
20070;DHT22;10195;50.868;4.382;2023-02-17T01:57:44;11.80;99.90
20070;DHT22;10195;50.868;4.382;2023-02-17T02:00:12;11.70;99.90
20070;DHT22;10195;50.868;4.382;2023-02-17T02:02:40;11.80;99.90
20070;DHT22;10195;50.868;4.382;2023-02-17T02:05:07;11.80;99.90
20070;DHT22;10195;50.868;4.382;2023-02-17T02:07:37;11.80;99.90
20070;DHT22;10195;50.868;4.382;2023-02-17T02:10:03;11.90;99.90
20070;DHT22;10195;50.868;4.382;2023-02-17T02:12:35;11.90;99.90
20070;DHT22;10195;50.868;4.382;2023-02-17T02:15:14;12.00;99.90
20070;DHT22;10195;50.868;4.382;2023-02-17T02:18:02;11.90;99.90
20070;DHT22;10195;50.868;4.382;2023-02-17T02:34:46;11.60;99.90
20070;DHT22;10195;50.868;4.382;2023-02-17T02:37:26;11.60;99.90
20070;DHT22;10195;50.868;4.382;2023-02-17T02:39:56;11.60;99.90
20070;DHT22;10195;50.868;4.382;2023-02-17T02:42:24;11.70;99.90
20070;DHT22;10195;50.868;4.382;2023-02-17T02:44:51;11.60;99.90
20070;DHT22;10195;50.868;4.382;2023-02-17T02:47:46;11.70;99.90
20070;DHT22;10195;50.868;4.382;2023-02-17T02:50:18;11.50;99.90
20070;DHT22;10195;50.868;4.382;2023-02-17T02:58:34;11.40;99.90
20070;DHT22;10195;50.868;4.382;2023-02-17T03:01:07;11.40;99.90
20070;DHT22;10195;50.868;4.382;2023-02-17T03:04:01;11.50;99.90
20070;DHT22;10195;50.868;4.382;2023-02-17T03:06:40;11.50;99.90
20070;DHT22;10195;50.868;4.382;2023-02-17T03:09:16;11.50;99.90
20070;DHT22;10195;50.868;4.382;2023-02-17T03:11:44;11.50;99.90
20070;DHT22;10195;50.868;4.382;2023-02-17T03:14:13;11.50;99.90
20070;DHT22;10195;50.868;4.382;2023-02-17T03:16:40;11.40;99.90
20070;DHT22;10195;50.868;4.382;2023-02-17T03:19:07;11.30;99.90
20070;DHT22;10195;50.868;4.382;2023-02-17T03:21:56;11.40;99.90
20070;DHT22;10195;50.868;4.382;2023-02-17T03:24:23;11.30;99.90
20070;DHT22;10195;50.868;4.382;2023-02-17T03:26:49;11.30;99.90
20070;DHT22;10195;50.868;4.382;2023-02-17T03:29:15;11.40;99.90
20070;DHT22;10195;50.868;4.382;2023-02-17T03:31:40;11.40;99.90
20070;DHT22;10195;50.868;4.382;2023-02-17T03:34:07;11.50;99.90
20070;DHT22;10195;50.868;4.382;2023-02-17T03:36:33;11.40;99.90
20070;DHT22;10195;50.868;4.382;2023-02-17T03:38:59;11.50;99.90
20070;DHT22;10195;50.868;4.382;2023-02-17T03:41:24;11.50;99.90
20070;DHT22;10195;50.868;4.382;2023-02-17T03:43:50;11.50;99.90
20070;DHT22;10195;50.868;4.382;2023-02-17T03:46:16;11.50;99.90
20070;DHT22;10195;50.868;4.382;2023-02-17T03:48:42;11.40;99.90
20070;DHT22;10195;50.868;4.382;2023-02-17T03:51:19;11.40;99.90
20070;DHT22;10195;50.868;4.382;2023-02-17T03:53:45;11.30;99.90
20070;DHT22;10195;50.868;4.382;2023-02-17T03:56:12;11.40;99.90
20070;DHT22;10195;50.868;4.382;2023-02-17T03:58:39;11.40;99.90
20070;DHT22;10195;50.868;4.382;2023-02-17T04:01:06;11.40;99.90
20070;DHT22;10195;50.868;4.382;2023-02-17T04:03:33;11.40;99.90
20070;DHT22;10195;50.868;4.382;2023-02-17T04:05:59;11.30;99.90
20070;DHT22;10195;50.868;4.382;2023-02-17T04:08:25;11.30;99.90
20070;DHT22;10195;50.868;4.382;2023-02-17T04:10:56;11.30;99.90
20070;DHT22;10195;50.868;4.382;2023-02-17T04:13:23;11.30;99.90
20070;DHT22;10195;50.868;4.382;2023-02-17T04:15:49;11.30;99.90
20070;DHT22;10195;50.868;4.382;2023-02-17T04:18:15;11.30;99.90
20070;DHT22;10195;50.868;4.382;2023-02-17T04:20:42;11.30;99.90
20070;DHT22;10195;50.868;4.382;2023-02-17T04:23:08;11.20;99.90
20070;DHT22;10195;50.868;4.382;2023-02-17T04:25:35;11.30;99.90
20070;DHT22;10195;50.868;4.382;2023-02-17T04:28:05;11.30;99.90
20070;DHT22;10195;50.868;4.382;2023-02-17T04:30:31;11.20;99.90
20070;DHT22;10195;50.868;4.382;2023-02-17T04:32:57;11.20;99.90
20070;DHT22;10195;50.868;4.382;2023-02-17T04:35:23;11.30;99.90
20070;DHT22;10195;50.868;4.382;2023-02-17T04:37:48;11.30;99.90
20070;DHT22;10195;50.868;4.382;2023-02-17T04:40:14;11.30;99.90
20070;DHT22;10195;50.868;4.382;2023-02-17T04:42:40;11.30;99.90
20070;DHT22;10195;50.868;4.382;2023-02-17T04:45:06;11.30;99.90
20070;DHT22;10195;50.868;4.382;2023-02-17T04:47:32;11.30;99.90
20070;DHT22;10195;50.868;4.382;2023-02-17T04:49:58;11.30;99.90
20070;DHT22;10195;50.868;4.382;2023-02-17T04:52:24;11.40;99.90
20070;DHT22;10195;50.868;4.382;2023-02-17T04:54:50;11.30;99.90
20070;DHT22;10195;50.868;4.382;2023-02-17T04:57:16;11.20;99.90
20070;DHT22;10195;50.868;4.382;2023-02-17T04:59:42;11.20;99.90
20070;DHT22;10195;50.868;4.382;2023-02-17T05:02:08;11.20;99.90
20070;DHT22;10195;50.868;4.382;2023-02-17T05:04:33;11.10;99.90
20070;DHT22;10195;50.868;4.382;2023-02-17T05:06:59;11.10;99.90
20070;DHT22;10195;50.868;4.382;2023-02-17T05:09:25;11.10;99.90
20070;DHT22;10195;50.868;4.382;2023-02-17T05:11:51;11.20;99.90
20070;DHT22;10195;50.868;4.382;2023-02-17T05:14:16;11.20;99.90
20070;DHT22;10195;50.868;4.382;2023-02-17T05:16:42;11.20;99.90
20070;DHT22;10195;50.868;4.382;2023-02-17T05:19:08;11.20;99.90
20070;DHT22;10195;50.868;4.382;2023-02-17T05:21:33;11.20;99.90
20070;DHT22;10195;50.868;4.382;2023-02-17T05:23:59;11.20;99.90
20070;DHT22;10195;50.868;4.382;2023-02-17T05:26:26;11.20;99.90
20070;DHT22;10195;50.868;4.382;2023-02-17T05:28:52;11.30;99.90
20070;DHT22;10195;50.868;4.382;2023-02-17T05:31:17;11.20;99.90
20070;DHT22;10195;50.868;4.382;2023-02-17T05:33:43;11.20;99.90
20070;DHT22;10195;50.868;4.382;2023-02-17T05:36:09;11.20;99.90
20070;DHT22;10195;50.868;4.382;2023-02-17T05:38:36;11.20;99.90
20070;DHT22;10195;50.868;4.382;2023-02-17T05:41:02;11.20;99.90
20070;DHT22;10195;50.868;4.382;2023-02-17T05:43:28;11.20;99.90
20070;DHT22;10195;50.868;4.382;2023-02-17T05:45:54;11.20;99.90
20070;DHT22;10195;50.868;4.382;2023-02-17T05:48:19;11.00;99.90
20070;DHT22;10195;50.868;4.382;2023-02-17T05:50:45;11.10;99.90
20070;DHT22;10195;50.868;4.382;2023-02-17T05:53:11;11.10;99.90
20070;DHT22;10195;50.868;4.382;2023-02-17T05:55:37;11.10;99.90
20070;DHT22;10195;50.868;4.382;2023-02-17T05:58:03;11.10;99.90
20070;DHT22;10195;50.868;4.382;2023-02-17T06:00:29;11.10;99.90
20070;DHT22;10195;50.868;4.382;2023-02-17T06:02:55;11.00;99.90
20070;DHT22;10195;50.868;4.382;2023-02-17T06:05:20;11.00;99.90
20070;DHT22;10195;50.868;4.382;2023-02-17T06:07:46;11.10;99.90
20070;DHT22;10195;50.868;4.382;2023-02-17T06:10:12;11.20;99.90
20070;DHT22;10195;50.868;4.382;2023-02-17T06:12:38;11.20;99.90
20070;DHT22;10195;50.868;4.382;2023-02-17T06:15:04;11.20;99.90
20070;DHT22;10195;50.868;4.382;2023-02-17T06:17:30;11.20;99.90
20070;DHT22;10195;50.868;4.382;2023-02-17T06:19:55;11.20;99.90
20070;DHT22;10195;50.868;4.382;2023-02-17T06:22:21;11.20;99.90
20070;DHT22;10195;50.868;4.382;2023-02-17T06:24:47;11.20;99.90
20070;DHT22;10195;50.868;4.382;2023-02-17T06:27:12;11.10;99.90
20070;DHT22;10195;50.868;4.382;2023-02-17T06:29:38;11.10;99.90
20070;DHT22;10195;50.868;4.382;2023-02-17T06:32:04;11.10;99.90
20070;DHT22;10195;50.868;4.382;2023-02-17T06:34:29;11.10;99.90
20070;DHT22;10195;50.868;4.382;2023-02-17T06:36:55;11.00;99.90
20070;DHT22;10195;50.868;4.382;2023-02-17T06:39:21;11.00;99.90
20070;DHT22;10195;50.868;4.382;2023-02-17T06:41:46;11.00;99.90
20070;DHT22;10195;50.868;4.382;2023-02-17T06:44:12;11.00;99.90
20070;DHT22;10195;50.868;4.382;2023-02-17T06:46:38;11.10;99.90
20070;DHT22;10195;50.868;4.382;2023-02-17T06:49:05;11.10;99.90
20070;DHT22;10195;50.868;4.382;2023-02-17T06:51:30;11.10;99.90
20070;DHT22;10195;50.868;4.382;2023-02-17T06:53:56;11.10;99.90
20070;DHT22;10195;50.868;4.382;2023-02-17T06:56:22;11.10;99.90
20070;DHT22;10195;50.868;4.382;2023-02-17T06:58:48;11.10;99.90
20070;DHT22;10195;50.868;4.382;2023-02-17T07:01:23;11.10;99.90
20070;DHT22;10195;50.868;4.382;2023-02-17T07:03:51;11.20;99.90
20070;DHT22;10195;50.868;4.382;2023-02-17T07:06:17;11.10;99.90
20070;DHT22;10195;50.868;4.382;2023-02-17T07:08:42;11.10;99.90
20070;DHT22;10195;50.868;4.382;2023-02-17T07:11:10;11.10;99.90
20070;DHT22;10195;50.868;4.382;2023-02-17T07:13:36;11.10;99.90
20070;DHT22;10195;50.868;4.382;2023-02-17T07:16:02;11.10;99.90
20070;DHT22;10195;50.868;4.382;2023-02-17T07:18:28;11.20;99.90
20070;DHT22;10195;50.868;4.382;2023-02-17T07:20:54;11.10;99.90
20070;DHT22;10195;50.868;4.382;2023-02-17T07:23:19;11.20;99.90
20070;DHT22;10195;50.868;4.382;2023-02-17T07:25:45;11.20;99.90
20070;DHT22;10195;50.868;4.382;2023-02-17T07:28:11;11.20;99.90
20070;DHT22;10195;50.868;4.382;2023-02-17T07:30:41;11.20;99.90
20070;DHT22;10195;50.868;4.382;2023-02-17T07:33:07;11.30;99.90
20070;DHT22;10195;50.868;4.382;2023-02-17T07:35:33;11.30;99.90
20070;DHT22;10195;50.868;4.382;2023-02-17T07:38:00;11.30;99.90
20070;DHT22;10195;50.868;4.382;2023-02-17T07:40:26;11.20;99.90
20070;DHT22;10195;50.868;4.382;2023-02-17T07:42:52;11.30;99.90
20070;DHT22;10195;50.868;4.382;2023-02-17T07:45:18;11.30;99.90
20070;DHT22;10195;50.868;4.382;2023-02-17T07:47:44;11.30;99.90
20070;DHT22;10195;50.868;4.382;2023-02-17T07:50:10;11.40;99.90
20070;DHT22;10195;50.868;4.382;2023-02-17T07:52:36;11.50;99.90
20070;DHT22;10195;50.868;4.382;2023-02-17T07:55:02;11.50;99.90
20070;DHT22;10195;50.868;4.382;2023-02-17T07:57:27;11.60;99.90
20070;DHT22;10195;50.868;4.382;2023-02-17T07:59:54;11.60;99.90
20070;DHT22;10195;50.868;4.382;2023-02-17T08:02:19;11.60;99.90
20070;DHT22;10195;50.868;4.382;2023-02-17T08:04:45;11.50;99.90
20070;DHT22;10195;50.868;4.382;2023-02-17T08:07:11;11.50;99.90
20070;DHT22;10195;50.868;4.382;2023-02-17T08:09:36;11.50;99.90
20070;DHT22;10195;50.868;4.382;2023-02-17T08:12:21;11.50;99.90
20070;DHT22;10195;50.868;4.382;2023-02-17T08:15:07;11.50;99.90
20070;DHT22;10195;50.868;4.382;2023-02-17T08:17:33;11.50;99.90
20070;DHT22;10195;50.868;4.382;2023-02-17T08:19:59;11.60;99.90
20070;DHT22;10195;50.868;4.382;2023-02-17T08:22:25;11.70;99.90
20070;DHT22;10195;50.868;4.382;2023-02-17T08:24:50;11.60;99.90
20070;DHT22;10195;50.868;4.382;2023-02-17T08:27:17;11.60;99.90
20070;DHT22;10195;50.868;4.382;2023-02-17T08:29:43;11.70;99.90
20070;DHT22;10195;50.868;4.382;2023-02-17T08:32:09;11.70;99.90
20070;DHT22;10195;50.868;4.382;2023-02-17T08:34:35;11.80;99.90
20070;DHT22;10195;50.868;4.382;2023-02-17T08:37:03;11.90;99.90
20070;DHT22;10195;50.868;4.382;2023-02-17T08:39:29;12.00;99.90
20070;DHT22;10195;50.868;4.382;2023-02-17T08:41:55;12.00;99.90
20070;DHT22;10195;50.868;4.382;2023-02-17T08:44:20;12.10;99.90
20070;DHT22;10195;50.868;4.382;2023-02-17T08:46:48;12.00;99.90
20070;DHT22;10195;50.868;4.382;2023-02-17T08:49:20;12.10;99.90
20070;DHT22;10195;50.868;4.382;2023-02-17T08:51:46;12.10;99.90
20070;DHT22;10195;50.868;4.382;2023-02-17T08:54:12;12.20;99.90
20070;DHT22;10195;50.868;4.382;2023-02-17T08:56:38;12.20;99.90
20070;DHT22;10195;50.868;4.382;2023-02-17T08:59:05;12.30;99.90
20070;DHT22;10195;50.868;4.382;2023-02-17T09:01:32;12.40;99.90
20070;DHT22;10195;50.868;4.382;2023-02-17T09:03:58;12.40;99.90
20070;DHT22;10195;50.868;4.382;2023-02-17T09:06:41;12.60;99.90
20070;DHT22;10195;50.868;4.382;2023-02-17T09:09:10;12.60;99.90
20070;DHT22;10195;50.868;4.382;2023-02-17T09:11:36;12.50;99.90
20070;DHT22;10195;50.868;4.382;2023-02-17T09:14:02;12.60;99.90
20070;DHT22;10195;50.868;4.382;2023-02-17T09:16:28;12.70;99.90
20070;DHT22;10195;50.868;4.382;2023-02-17T09:18:54;12.80;99.90
20070;DHT22;10195;50.868;4.382;2023-02-17T09:21:20;12.90;99.90
20070;DHT22;10195;50.868;4.382;2023-02-17T09:23:47;12.90;99.90
20070;DHT22;10195;50.868;4.382;2023-02-17T09:26:14;13.10;99.90
20070;DHT22;10195;50.868;4.382;2023-02-17T09:28:40;13.30;99.90
20070;DHT22;10195;50.868;4.382;2023-02-17T09:31:15;13.30;99.90
20070;DHT22;10195;50.868;4.382;2023-02-17T09:33:41;13.30;99.90
20070;DHT22;10195;50.868;4.382;2023-02-17T09:36:09;13.40;99.90
20070;DHT22;10195;50.868;4.382;2023-02-17T09:38:38;13.50;99.90
20070;DHT22;10195;50.868;4.382;2023-02-17T09:43:54;13.70;99.90
20070;DHT22;10195;50.868;4.382;2023-02-17T09:46:34;13.80;99.90
20070;DHT22;10195;50.868;4.382;2023-02-17T09:49:11;13.90;99.90
20070;DHT22;10195;50.868;4.382;2023-02-17T09:57:17;14.10;99.90
20070;DHT22;10195;50.868;4.382;2023-02-17T09:59:48;14.10;99.90
20070;DHT22;10195;50.868;4.382;2023-02-17T10:02:38;14.10;99.90
20070;DHT22;10195;50.868;4.382;2023-02-17T10:05:08;13.90;99.90
20070;DHT22;10195;50.868;4.382;2023-02-17T10:07:40;13.80;99.90
20070;DHT22;10195;50.868;4.382;2023-02-17T10:10:15;13.90;99.90
20070;DHT22;10195;50.868;4.382;2023-02-17T10:12:55;13.80;99.90
20070;DHT22;10195;50.868;4.382;2023-02-17T10:15:26;14.00;99.90
20070;DHT22;10195;50.868;4.382;2023-02-17T10:18:04;14.00;99.90
20070;DHT22;10195;50.868;4.382;2023-02-17T10:20:41;14.10;99.90
20070;DHT22;10195;50.868;4.382;2023-02-17T10:23:20;14.30;99.90
20070;DHT22;10195;50.868;4.382;2023-02-17T10:26:18;14.30;99.90
20070;DHT22;10195;50.868;4.382;2023-02-17T10:31:45;14.30;99.90
20070;DHT22;10195;50.868;4.382;2023-02-17T10:42:02;14.90;99.90
20070;DHT22;10195;50.868;4.382;2023-02-17T10:44:33;14.80;99.90
20070;DHT22;10195;50.868;4.382;2023-02-17T10:47:02;14.90;99.90
20070;DHT22;10195;50.868;4.382;2023-02-17T10:49:34;15.30;99.90
20070;DHT22;10195;50.868;4.382;2023-02-17T10:52:13;15.40;99.90
20070;DHT22;10195;50.868;4.382;2023-02-17T10:54:50;15.30;99.90
20070;DHT22;10195;50.868;4.382;2023-02-17T10:57:18;15.30;99.90
20070;DHT22;10195;50.868;4.382;2023-02-17T10:59:46;15.50;99.90
20070;DHT22;10195;50.868;4.382;2023-02-17T11:02:22;15.70;99.90
20070;DHT22;10195;50.868;4.382;2023-02-17T11:04:51;16.10;99.90
20070;DHT22;10195;50.868;4.382;2023-02-17T11:07:26;16.10;99.90
20070;DHT22;10195;50.868;4.382;2023-02-17T11:09:59;16.40;99.90
20070;DHT22;10195;50.868;4.382;2023-02-17T11:12:54;16.40;99.90
20070;DHT22;10195;50.868;4.382;2023-02-17T11:15:28;16.40;99.90
20070;DHT22;10195;50.868;4.382;2023-02-17T11:17:55;16.30;99.90
20070;DHT22;10195;50.868;4.382;2023-02-17T11:25:39;16.40;99.90
20070;DHT22;10195;50.868;4.382;2023-02-17T11:28:10;16.30;99.90
20070;DHT22;10195;50.868;4.382;2023-02-17T11:30:39;16.20;99.90
20070;DHT22;10195;50.868;4.382;2023-02-17T11:33:18;16.00;99.90
20070;DHT22;10195;50.868;4.382;2023-02-17T11:35:54;15.60;99.90
20070;DHT22;10195;50.868;4.382;2023-02-17T11:41:18;15.20;99.90
20070;DHT22;10195;50.868;4.382;2023-02-17T11:43:57;15.10;99.90
20070;DHT22;10195;50.868;4.382;2023-02-17T12:00:23;14.80;99.90
20070;DHT22;10195;50.868;4.382;2023-02-17T12:08:58;15.00;99.90
20070;DHT22;10195;50.868;4.382;2023-02-17T12:17:23;15.10;99.90
20070;DHT22;10195;50.868;4.382;2023-02-17T12:19:55;14.90;99.90
20070;DHT22;10195;50.868;4.382;2023-02-17T12:22:37;14.80;99.90
20070;DHT22;10195;50.868;4.382;2023-02-17T12:36:06;14.60;99.90
20070;DHT22;10195;50.868;4.382;2023-02-17T12:38:38;14.30;99.90
20070;DHT22;10195;50.868;4.382;2023-02-17T12:41:23;14.20;99.90
20070;DHT22;10195;50.868;4.382;2023-02-17T12:44:00;14.00;99.90
20070;DHT22;10195;50.868;4.382;2023-02-17T12:46:41;14.10;99.90
20070;DHT22;10195;50.868;4.382;2023-02-17T12:49:11;14.20;99.90
20070;DHT22;10195;50.868;4.382;2023-02-17T12:51:51;14.20;99.90
20070;DHT22;10195;50.868;4.382;2023-02-17T12:54:40;14.10;99.90
20070;DHT22;10195;50.868;4.382;2023-02-17T13:00:54;13.70;99.90
20070;DHT22;10195;50.868;4.382;2023-02-17T13:03:01;13.70;99.90
20070;DHT22;10195;50.868;4.382;2023-02-17T13:05:46;13.70;99.90
20070;DHT22;10195;50.868;4.382;2023-02-17T13:11:06;14.00;99.90
20070;DHT22;10195;50.868;4.382;2023-02-17T13:13:34;14.10;99.90
20070;DHT22;10195;50.868;4.382;2023-02-17T13:16:11;14.00;99.90
20070;DHT22;10195;50.868;4.382;2023-02-17T13:18:46;14.00;99.90
20070;DHT22;10195;50.868;4.382;2023-02-17T13:24:02;14.00;99.90
20070;DHT22;10195;50.868;4.382;2023-02-17T13:26:31;13.90;99.90
20070;DHT22;10195;50.868;4.382;2023-02-17T13:31:54;13.70;99.90
20070;DHT22;10195;50.868;4.382;2023-02-17T13:34:34;13.80;99.90
20070;DHT22;10195;50.868;4.382;2023-02-17T13:37:16;13.80;99.90
20070;DHT22;10195;50.868;4.382;2023-02-17T13:39:42;13.90;99.90
20070;DHT22;10195;50.868;4.382;2023-02-17T13:44:56;13.60;99.90
20070;DHT22;10195;50.868;4.382;2023-02-17T13:47:33;13.70;99.90
20070;DHT22;10195;50.868;4.382;2023-02-17T13:49:59;13.70;99.90
20070;DHT22;10195;50.868;4.382;2023-02-17T13:52:30;13.70;99.90
20070;DHT22;10195;50.868;4.382;2023-02-17T13:54:57;13.70;99.90
20070;DHT22;10195;50.868;4.382;2023-02-17T13:57:35;13.70;99.90
20070;DHT22;10195;50.868;4.382;2023-02-17T14:00:23;13.80;99.90
20070;DHT22;10195;50.868;4.382;2023-02-17T14:02:55;13.90;99.90
20070;DHT22;10195;50.868;4.382;2023-02-17T14:05:42;13.80;99.90
20070;DHT22;10195;50.868;4.382;2023-02-17T14:08:33;13.70;99.90
20070;DHT22;10195;50.868;4.382;2023-02-17T14:11:09;13.50;99.90
20070;DHT22;10195;50.868;4.382;2023-02-17T14:13:38;13.50;99.90
20070;DHT22;10195;50.868;4.382;2023-02-17T14:16:04;13.40;99.90
20070;DHT22;10195;50.868;4.382;2023-02-17T14:18:37;13.50;99.90
20070;DHT22;10195;50.868;4.382;2023-02-17T14:21:09;13.40;99.90
20070;DHT22;10195;50.868;4.382;2023-02-17T14:23:44;13.50;99.90
20070;DHT22;10195;50.868;4.382;2023-02-17T14:26:24;13.50;99.90
20070;DHT22;10195;50.868;4.382;2023-02-17T14:28:58;13.60;99.90
20070;DHT22;10195;50.868;4.382;2023-02-17T14:31:26;13.70;99.90
20070;DHT22;10195;50.868;4.382;2023-02-17T14:33:58;13.50;99.90
20070;DHT22;10195;50.868;4.382;2023-02-17T14:38:55;13.40;99.90
20070;DHT22;10195;50.868;4.382;2023-02-17T14:41:21;13.30;99.90
20070;DHT22;10195;50.868;4.382;2023-02-17T14:43:46;13.30;99.90
20070;DHT22;10195;50.868;4.382;2023-02-17T14:46:12;13.30;99.90
20070;DHT22;10195;50.868;4.382;2023-02-17T14:48:40;13.20;99.90
20070;DHT22;10195;50.868;4.382;2023-02-17T14:51:14;13.20;99.90
20070;DHT22;10195;50.868;4.382;2023-02-17T14:53:40;13.20;99.90
20070;DHT22;10195;50.868;4.382;2023-02-17T14:56:07;13.20;99.90
20070;DHT22;10195;50.868;4.382;2023-02-17T14:58:33;13.10;99.90
20070;DHT22;10195;50.868;4.382;2023-02-17T15:00:59;13.10;99.90
20070;DHT22;10195;50.868;4.382;2023-02-17T15:03:25;13.00;99.90
20070;DHT22;10195;50.868;4.382;2023-02-17T15:05:52;13.00;99.90
20070;DHT22;10195;50.868;4.382;2023-02-17T15:08:20;13.00;99.90
20070;DHT22;10195;50.868;4.382;2023-02-17T15:10:47;13.10;99.90
20070;DHT22;10195;50.868;4.382;2023-02-17T15:13:18;13.10;99.90
20070;DHT22;10195;50.868;4.382;2023-02-17T15:15:44;13.10;99.90
20070;DHT22;10195;50.868;4.382;2023-02-17T15:18:16;13.20;99.90
20070;DHT22;10195;50.868;4.382;2023-02-17T15:20:44;13.20;99.90
20070;DHT22;10195;50.868;4.382;2023-02-17T15:23:15;13.20;99.90
20070;DHT22;10195;50.868;4.382;2023-02-17T15:25:42;13.10;99.90
20070;DHT22;10195;50.868;4.382;2023-02-17T15:28:16;13.10;99.90
20070;DHT22;10195;50.868;4.382;2023-02-17T15:30:47;13.10;99.90
20070;DHT22;10195;50.868;4.382;2023-02-17T15:33:13;13.00;99.90
20070;DHT22;10195;50.868;4.382;2023-02-17T15:35:39;13.00;99.90
20070;DHT22;10195;50.868;4.382;2023-02-17T15:38:08;12.80;99.90
20070;DHT22;10195;50.868;4.382;2023-02-17T15:40:35;12.90;99.90
20070;DHT22;10195;50.868;4.382;2023-02-17T15:43:01;12.90;99.90
20070;DHT22;10195;50.868;4.382;2023-02-17T15:45:28;12.80;99.90
20070;DHT22;10195;50.868;4.382;2023-02-17T15:48:09;12.80;99.90
20070;DHT22;10195;50.868;4.382;2023-02-17T15:50:35;12.90;99.90
20070;DHT22;10195;50.868;4.382;2023-02-17T15:53:01;12.90;99.90
20070;DHT22;10195;50.868;4.382;2023-02-17T15:55:27;12.90;99.90
20070;DHT22;10195;50.868;4.382;2023-02-17T15:57:55;13.00;99.90
20070;DHT22;10195;50.868;4.382;2023-02-17T16:00:24;13.00;99.90
20070;DHT22;10195;50.868;4.382;2023-02-17T16:02:51;13.00;99.90
20070;DHT22;10195;50.868;4.382;2023-02-17T16:05:18;13.00;99.90
20070;DHT22;10195;50.868;4.382;2023-02-17T16:07:44;12.90;99.90
20070;DHT22;10195;50.868;4.382;2023-02-17T16:10:13;12.90;99.90
20070;DHT22;10195;50.868;4.382;2023-02-17T16:12:39;12.80;99.90
20070;DHT22;10195;50.868;4.382;2023-02-17T16:15:05;12.80;99.90
20070;DHT22;10195;50.868;4.382;2023-02-17T16:17:34;12.60;99.90
20070;DHT22;10195;50.868;4.382;2023-02-17T16:20:00;12.60;99.90
20070;DHT22;10195;50.868;4.382;2023-02-17T16:22:26;12.60;99.90
20070;DHT22;10195;50.868;4.382;2023-02-17T16:24:52;12.50;99.90
20070;DHT22;10195;50.868;4.382;2023-02-17T16:27:17;12.50;99.90
20070;DHT22;10195;50.868;4.382;2023-02-17T16:29:43;12.50;99.90
20070;DHT22;10195;50.868;4.382;2023-02-17T16:32:10;12.30;99.90
20070;DHT22;10195;50.868;4.382;2023-02-17T16:34:36;12.30;99.90
20070;DHT22;10195;50.868;4.382;2023-02-17T16:37:10;12.20;99.90
20070;DHT22;10195;50.868;4.382;2023-02-17T16:39:37;12.20;99.90
20070;DHT22;10195;50.868;4.382;2023-02-17T16:42:03;12.20;99.90
20070;DHT22;10195;50.868;4.382;2023-02-17T16:44:29;12.10;99.90
20070;DHT22;10195;50.868;4.382;2023-02-17T16:46:55;12.10;99.90
20070;DHT22;10195;50.868;4.382;2023-02-17T16:49:24;12.10;99.90
20070;DHT22;10195;50.868;4.382;2023-02-17T16:51:52;12.10;99.90
20070;DHT22;10195;50.868;4.382;2023-02-17T16:54:18;12.20;99.90
20070;DHT22;10195;50.868;4.382;2023-02-17T16:56:49;12.20;99.90
20070;DHT22;10195;50.868;4.382;2023-02-17T16:59:17;12.00;99.90
20070;DHT22;10195;50.868;4.382;2023-02-17T17:01:43;12.00;99.90
20070;DHT22;10195;50.868;4.382;2023-02-17T17:04:10;11.90;99.90
20070;DHT22;10195;50.868;4.382;2023-02-17T17:06:37;11.90;99.90
20070;DHT22;10195;50.868;4.382;2023-02-17T17:09:03;12.00;99.90
20070;DHT22;10195;50.868;4.382;2023-02-17T17:11:30;12.00;99.90
20070;DHT22;10195;50.868;4.382;2023-02-17T17:13:56;12.00;99.90
20070;DHT22;10195;50.868;4.382;2023-02-17T17:16:25;12.00;99.90
20070;DHT22;10195;50.868;4.382;2023-02-17T17:18:51;12.00;99.90
20070;DHT22;10195;50.868;4.382;2023-02-17T17:21:17;12.00;99.90
20070;DHT22;10195;50.868;4.382;2023-02-17T17:23:44;12.00;99.90
20070;DHT22;10195;50.868;4.382;2023-02-17T17:26:36;12.00;99.90